sensor_id;sensor_type;location;lat;lon;timestamp;P1;durP1;ratioP1;P2;durP2;ratioP2
86088;SDS011;76699;52.232;5.176;2024-03-29T00:00:25;2.65;;;0.45;;
86088;SDS011;76699;52.232;5.176;2024-03-29T00:02:51;3.03;;;0.10;;
86088;SDS011;76699;52.232;5.176;2024-03-29T00:05:16;2.50;;;0.20;;
86088;SDS011;76699;52.232;5.176;2024-03-29T00:07:41;6.27;;;0.57;;
86088;SDS011;76699;52.232;5.176;2024-03-29T00:10:07;4.07;;;0.20;;
86088;SDS011;76699;52.232;5.176;2024-03-29T00:12:32;4.40;;;0.40;;
86088;SDS011;76699;52.232;5.176;2024-03-29T00:14:58;3.03;;;0.40;;
86088;SDS011;76699;52.232;5.176;2024-03-29T00:17:23;5.23;;;0.40;;
86088;SDS011;76699;52.232;5.176;2024-03-29T00:19:48;5.40;;;0.37;;
86088;SDS011;76699;52.232;5.176;2024-03-29T00:22:13;3.53;;;0.43;;
86088;SDS011;76699;52.232;5.176;2024-03-29T00:24:39;4.88;;;0.75;;
86088;SDS011;76699;52.232;5.176;2024-03-29T00:27:04;5.37;;;0.37;;
86088;SDS011;76699;52.232;5.176;2024-03-29T00:29:30;3.53;;;0.55;;
86088;SDS011;76699;52.232;5.176;2024-03-29T00:31:56;0.95;;;0.03;;
86088;SDS011;76699;52.232;5.176;2024-03-29T00:34:22;2.13;;;0.30;;
86088;SDS011;76699;52.232;5.176;2024-03-29T00:36:47;3.17;;;0.47;;
86088;SDS011;76699;52.232;5.176;2024-03-29T00:39:12;1.23;;;0.10;;
86088;SDS011;76699;52.232;5.176;2024-03-29T00:41:37;2.53;;;0.30;;
86088;SDS011;76699;52.232;5.176;2024-03-29T00:44:03;3.37;;;0.30;;
86088;SDS011;76699;52.232;5.176;2024-03-29T00:46:28;5.95;;;0.38;;
86088;SDS011;76699;52.232;5.176;2024-03-29T00:48:53;2.63;;;0.33;;
86088;SDS011;76699;52.232;5.176;2024-03-29T00:51:19;2.80;;;0.30;;
86088;SDS011;76699;52.232;5.176;2024-03-29T00:53:44;2.10;;;0.20;;
86088;SDS011;76699;52.232;5.176;2024-03-29T00:56:10;2.38;;;0.25;;
86088;SDS011;76699;52.232;5.176;2024-03-29T00:58:35;4.70;;;0.40;;
86088;SDS011;76699;52.232;5.176;2024-03-29T01:01:01;1.93;;;0.20;;
86088;SDS011;76699;52.232;5.176;2024-03-29T01:03:26;1.50;;;0.10;;
86088;SDS011;76699;52.232;5.176;2024-03-29T01:05:55;3.83;;;0.40;;
86088;SDS011;76699;52.232;5.176;2024-03-29T01:08:20;3.03;;;0.30;;
86088;SDS011;76699;52.232;5.176;2024-03-29T01:10:46;2.17;;;0.20;;
86088;SDS011;76699;52.232;5.176;2024-03-29T01:13:11;1.00;;;0.20;;
86088;SDS011;76699;52.232;5.176;2024-03-29T01:15:36;4.60;;;0.25;;
86088;SDS011;76699;52.232;5.176;2024-03-29T01:18:02;0.30;;;0.00;;
86088;SDS011;76699;52.232;5.176;2024-03-29T01:20:27;2.40;;;0.10;;
86088;SDS011;76699;52.232;5.176;2024-03-29T01:22:52;3.30;;;0.33;;
86088;SDS011;76699;52.232;5.176;2024-03-29T01:25:17;6.60;;;0.40;;
86088;SDS011;76699;52.232;5.176;2024-03-29T01:27:43;3.10;;;0.27;;
86088;SDS011;76699;52.232;5.176;2024-03-29T01:30:08;3.97;;;0.60;;
86088;SDS011;76699;52.232;5.176;2024-03-29T01:32:34;2.88;;;0.43;;
86088;SDS011;76699;52.232;5.176;2024-03-29T01:34:59;4.93;;;0.50;;
86088;SDS011;76699;52.232;5.176;2024-03-29T01:37:25;3.20;;;0.20;;
86088;SDS011;76699;52.232;5.176;2024-03-29T01:39:50;2.30;;;0.40;;
86088;SDS011;76699;52.232;5.176;2024-03-29T01:42:16;0.82;;;0.13;;
86088;SDS011;76699;52.232;5.176;2024-03-29T01:44:42;4.00;;;0.50;;
86088;SDS011;76699;52.232;5.176;2024-03-29T01:47:07;1.10;;;0.10;;
86088;SDS011;76699;52.232;5.176;2024-03-29T01:49:33;3.65;;;0.20;;
86088;SDS011;76699;52.232;5.176;2024-03-29T01:51:58;2.05;;;0.30;;
86088;SDS011;76699;52.232;5.176;2024-03-29T01:54:24;3.15;;;0.08;;
86088;SDS011;76699;52.232;5.176;2024-03-29T01:56:50;2.78;;;0.40;;
86088;SDS011;76699;52.232;5.176;2024-03-29T01:59:16;3.53;;;0.55;;
86088;SDS011;76699;52.232;5.176;2024-03-29T02:01:42;2.60;;;0.13;;
86088;SDS011;76699;52.232;5.176;2024-03-29T02:04:08;5.82;;;0.30;;
86088;SDS011;76699;52.232;5.176;2024-03-29T02:06:36;5.10;;;0.30;;
86088;SDS011;76699;52.232;5.176;2024-03-29T02:09:03;3.40;;;0.38;;
86088;SDS011;76699;52.232;5.176;2024-03-29T02:11:28;1.35;;;0.22;;
86088;SDS011;76699;52.232;5.176;2024-03-29T02:13:54;4.80;;;0.32;;
86088;SDS011;76699;52.232;5.176;2024-03-29T02:16:19;2.88;;;0.30;;
86088;SDS011;76699;52.232;5.176;2024-03-29T02:18:45;3.23;;;0.37;;
86088;SDS011;76699;52.232;5.176;2024-03-29T02:21:11;4.97;;;0.47;;
86088;SDS011;76699;52.232;5.176;2024-03-29T02:23:37;2.87;;;0.10;;
86088;SDS011;76699;52.232;5.176;2024-03-29T02:26:06;4.32;;;0.13;;
86088;SDS011;76699;52.232;5.176;2024-03-29T02:28:32;0.52;;;0.10;;
86088;SDS011;76699;52.232;5.176;2024-03-29T02:30:57;1.23;;;0.10;;
86088;SDS011;76699;52.232;5.176;2024-03-29T02:33:22;8.13;;;0.35;;
86088;SDS011;76699;52.232;5.176;2024-03-29T02:35:48;2.00;;;0.30;;
86088;SDS011;76699;52.232;5.176;2024-03-29T02:38:13;0.98;;;0.10;;
86088;SDS011;76699;52.232;5.176;2024-03-29T02:40:38;2.30;;;0.30;;
86088;SDS011;76699;52.232;5.176;2024-03-29T02:43:04;2.90;;;0.27;;
86088;SDS011;76699;52.232;5.176;2024-03-29T02:45:29;4.00;;;0.43;;
86088;SDS011;76699;52.232;5.176;2024-03-29T02:47:54;4.73;;;0.30;;
86088;SDS011;76699;52.232;5.176;2024-03-29T02:50:19;4.17;;;0.30;;
86088;SDS011;76699;52.232;5.176;2024-03-29T02:52:45;3.10;;;0.20;;
86088;SDS011;76699;52.232;5.176;2024-03-29T02:55:10;2.57;;;0.20;;
86088;SDS011;76699;52.232;5.176;2024-03-29T02:57:36;0.70;;;0.10;;
86088;SDS011;76699;52.232;5.176;2024-03-29T03:00:03;1.65;;;0.17;;
86088;SDS011;76699;52.232;5.176;2024-03-29T03:02:29;4.47;;;0.20;;
86088;SDS011;76699;52.232;5.176;2024-03-29T03:04:55;3.47;;;0.20;;
86088;SDS011;76699;52.232;5.176;2024-03-29T03:07:20;2.90;;;0.10;;
86088;SDS011;76699;52.232;5.176;2024-03-29T03:10:04;1.23;;;0.10;;
86088;SDS011;76699;52.232;5.176;2024-03-29T03:12:48;1.23;;;0.22;;
86088;SDS011;76699;52.232;5.176;2024-03-29T03:15:13;0.93;;;0.10;;
86088;SDS011;76699;52.232;5.176;2024-03-29T03:17:38;1.30;;;0.20;;
86088;SDS011;76699;52.232;5.176;2024-03-29T03:20:04;0.70;;;0.10;;
86088;SDS011;76699;52.232;5.176;2024-03-29T03:22:31;1.80;;;0.30;;
86088;SDS011;76699;52.232;5.176;2024-03-29T03:24:57;0.60;;;0.10;;
86088;SDS011;76699;52.232;5.176;2024-03-29T03:27:22;1.23;;;0.10;;
86088;SDS011;76699;52.232;5.176;2024-03-29T03:29:48;2.40;;;0.30;;
86088;SDS011;76699;52.232;5.176;2024-03-29T03:32:14;2.85;;;0.82;;
86088;SDS011;76699;52.232;5.176;2024-03-29T03:34:39;3.47;;;0.30;;
86088;SDS011;76699;52.232;5.176;2024-03-29T03:37:05;1.85;;;0.30;;
86088;SDS011;76699;52.232;5.176;2024-03-29T03:39:30;1.37;;;0.20;;
86088;SDS011;76699;52.232;5.176;2024-03-29T03:41:55;6.00;;;0.37;;
86088;SDS011;76699;52.232;5.176;2024-03-29T03:44:20;3.97;;;0.37;;
86088;SDS011;76699;52.232;5.176;2024-03-29T03:46:48;2.53;;;0.20;;
86088;SDS011;76699;52.232;5.176;2024-03-29T03:49:14;0.73;;;0.13;;
86088;SDS011;76699;52.232;5.176;2024-03-29T03:51:39;2.90;;;0.40;;
86088;SDS011;76699;52.232;5.176;2024-03-29T03:54:04;5.33;;;0.30;;
86088;SDS011;76699;52.232;5.176;2024-03-29T03:56:30;0.98;;;0.10;;
86088;SDS011;76699;52.232;5.176;2024-03-29T03:58:55;3.13;;;0.20;;
86088;SDS011;76699;52.232;5.176;2024-03-29T04:01:20;2.73;;;0.10;;
86088;SDS011;76699;52.232;5.176;2024-03-29T04:03:45;3.43;;;0.20;;
86088;SDS011;76699;52.232;5.176;2024-03-29T04:06:11;2.53;;;0.20;;
86088;SDS011;76699;52.232;5.176;2024-03-29T04:08:36;2.67;;;0.70;;
86088;SDS011;76699;52.232;5.176;2024-03-29T04:11:04;0.80;;;0.10;;
86088;SDS011;76699;52.232;5.176;2024-03-29T04:13:30;1.90;;;0.25;;
86088;SDS011;76699;52.232;5.176;2024-03-29T04:16:02;3.38;;;0.13;;
86088;SDS011;76699;52.232;5.176;2024-03-29T04:18:31;2.65;;;0.30;;
86088;SDS011;76699;52.232;5.176;2024-03-29T04:21:00;1.25;;;0.10;;
86088;SDS011;76699;52.232;5.176;2024-03-29T04:23:26;2.03;;;0.60;;
86088;SDS011;76699;52.232;5.176;2024-03-29T04:25:52;2.53;;;0.57;;
86088;SDS011;76699;52.232;5.176;2024-03-29T04:28:18;3.58;;;0.70;;
86088;SDS011;76699;52.232;5.176;2024-03-29T04:30:50;2.03;;;0.40;;
86088;SDS011;76699;52.232;5.176;2024-03-29T04:33:22;1.77;;;0.28;;
86088;SDS011;76699;52.232;5.176;2024-03-29T04:35:54;7.60;;;0.55;;
86088;SDS011;76699;52.232;5.176;2024-03-29T04:38:23;1.80;;;0.22;;
86088;SDS011;76699;52.232;5.176;2024-03-29T04:40:50;2.22;;;0.20;;
86088;SDS011;76699;52.232;5.176;2024-03-29T04:43:17;1.00;;;0.10;;
86088;SDS011;76699;52.232;5.176;2024-03-29T04:45:46;1.35;;;0.28;;
86088;SDS011;76699;52.232;5.176;2024-03-29T04:48:12;1.70;;;0.20;;
86088;SDS011;76699;52.232;5.176;2024-03-29T04:50:37;1.30;;;0.10;;
86088;SDS011;76699;52.232;5.176;2024-03-29T04:53:03;0.15;;;0.00;;
86088;SDS011;76699;52.232;5.176;2024-03-29T04:55:29;2.47;;;0.43;;
86088;SDS011;76699;52.232;5.176;2024-03-29T04:57:54;1.23;;;0.03;;
86088;SDS011;76699;52.232;5.176;2024-03-29T05:00:20;1.10;;;0.20;;
86088;SDS011;76699;52.232;5.176;2024-03-29T05:02:45;1.65;;;0.20;;
86088;SDS011;76699;52.232;5.176;2024-03-29T05:05:11;3.77;;;0.60;;
86088;SDS011;76699;52.232;5.176;2024-03-29T05:07:36;1.60;;;0.10;;
86088;SDS011;76699;52.232;5.176;2024-03-29T05:10:01;2.93;;;0.10;;
86088;SDS011;76699;52.232;5.176;2024-03-29T05:12:31;1.67;;;0.00;;
86088;SDS011;76699;52.232;5.176;2024-03-29T05:14:57;0.30;;;0.00;;
86088;SDS011;76699;52.232;5.176;2024-03-29T05:17:22;2.67;;;0.10;;
86088;SDS011;76699;52.232;5.176;2024-03-29T05:19:50;1.35;;;0.20;;
86088;SDS011;76699;52.232;5.176;2024-03-29T05:22:15;2.38;;;0.10;;
86088;SDS011;76699;52.232;5.176;2024-03-29T05:24:41;1.13;;;0.17;;
86088;SDS011;76699;52.232;5.176;2024-03-29T05:27:06;0.43;;;0.00;;
86088;SDS011;76699;52.232;5.176;2024-03-29T05:29:31;1.57;;;0.10;;
86088;SDS011;76699;52.232;5.176;2024-03-29T05:31:57;0.97;;;0.10;;
86088;SDS011;76699;52.232;5.176;2024-03-29T05:34:22;2.10;;;0.17;;
86088;SDS011;76699;52.232;5.176;2024-03-29T05:36:48;1.85;;;0.28;;
86088;SDS011;76699;52.232;5.176;2024-03-29T05:39:13;1.67;;;0.10;;
86088;SDS011;76699;52.232;5.176;2024-03-29T05:41:40;0.93;;;0.20;;
86088;SDS011;76699;52.232;5.176;2024-03-29T05:44:05;0.35;;;0.00;;
86088;SDS011;76699;52.232;5.176;2024-03-29T05:46:31;0.30;;;0.00;;
86088;SDS011;76699;52.232;5.176;2024-03-29T05:48:56;0.75;;;0.00;;
86088;SDS011;76699;52.232;5.176;2024-03-29T05:51:22;1.70;;;0.10;;
86088;SDS011;76699;52.232;5.176;2024-03-29T05:53:47;0.67;;;0.00;;
86088;SDS011;76699;52.232;5.176;2024-03-29T05:56:12;0.30;;;0.00;;
86088;SDS011;76699;52.232;5.176;2024-03-29T05:58:38;1.37;;;0.33;;
86088;SDS011;76699;52.232;5.176;2024-03-29T06:01:03;0.47;;;0.03;;
86088;SDS011;76699;52.232;5.176;2024-03-29T06:03:28;0.93;;;0.17;;
86088;SDS011;76699;52.232;5.176;2024-03-29T06:05:54;2.55;;;0.10;;
86088;SDS011;76699;52.232;5.176;2024-03-29T06:08:20;0.52;;;0.20;;
86088;SDS011;76699;52.232;5.176;2024-03-29T06:10:46;0.60;;;0.00;;
86088;SDS011;76699;52.232;5.176;2024-03-29T06:13:11;0.63;;;0.08;;
86088;SDS011;76699;52.232;5.176;2024-03-29T06:15:52;0.98;;;0.10;;
86088;SDS011;76699;52.232;5.176;2024-03-29T06:18:36;1.33;;;0.30;;
86088;SDS011;76699;52.232;5.176;2024-03-29T06:21:02;0.20;;;0.10;;
86088;SDS011;76699;52.232;5.176;2024-03-29T06:23:27;1.15;;;0.28;;
86088;SDS011;76699;52.232;5.176;2024-03-29T06:25:52;1.73;;;0.07;;
86088;SDS011;76699;52.232;5.176;2024-03-29T06:28:18;0.57;;;0.00;;
86088;SDS011;76699;52.232;5.176;2024-03-29T06:30:43;0.67;;;0.00;;
86088;SDS011;76699;52.232;5.176;2024-03-29T06:33:08;0.87;;;0.10;;
86088;SDS011;76699;52.232;5.176;2024-03-29T06:35:34;1.77;;;0.32;;
86088;SDS011;76699;52.232;5.176;2024-03-29T06:37:59;0.87;;;0.20;;
86088;SDS011;76699;52.232;5.176;2024-03-29T06:40:25;1.93;;;0.10;;
86088;SDS011;76699;52.232;5.176;2024-03-29T06:42:50;0.17;;;0.00;;
86088;SDS011;76699;52.232;5.176;2024-03-29T06:45:16;1.50;;;0.38;;
86088;SDS011;76699;52.232;5.176;2024-03-29T06:47:41;0.83;;;0.10;;
86088;SDS011;76699;52.232;5.176;2024-03-29T06:50:06;1.03;;;0.10;;
86088;SDS011;76699;52.232;5.176;2024-03-29T06:52:32;1.15;;;0.20;;
86088;SDS011;76699;52.232;5.176;2024-03-29T06:54:57;0.90;;;0.20;;
86088;SDS011;76699;52.232;5.176;2024-03-29T06:57:23;2.13;;;0.10;;
86088;SDS011;76699;52.232;5.176;2024-03-29T06:59:50;0.55;;;0.05;;
86088;SDS011;76699;52.232;5.176;2024-03-29T07:02:15;0.38;;;0.00;;
86088;SDS011;76699;52.232;5.176;2024-03-29T07:04:41;2.37;;;0.20;;
86088;SDS011;76699;52.232;5.176;2024-03-29T07:07:06;1.03;;;0.20;;
86088;SDS011;76699;52.232;5.176;2024-03-29T07:09:31;2.75;;;0.25;;
86088;SDS011;76699;52.232;5.176;2024-03-29T07:11:57;0.77;;;0.00;;
86088;SDS011;76699;52.232;5.176;2024-03-29T07:14:23;1.38;;;0.10;;
86088;SDS011;76699;52.232;5.176;2024-03-29T07:16:51;1.10;;;0.15;;
86088;SDS011;76699;52.232;5.176;2024-03-29T07:19:17;1.30;;;0.13;;
86088;SDS011;76699;52.232;5.176;2024-03-29T07:21:43;1.38;;;0.20;;
86088;SDS011;76699;52.232;5.176;2024-03-29T07:24:09;2.90;;;0.10;;
86088;SDS011;76699;52.232;5.176;2024-03-29T07:26:35;1.02;;;0.10;;
86088;SDS011;76699;52.232;5.176;2024-03-29T07:29:00;1.52;;;0.10;;
86088;SDS011;76699;52.232;5.176;2024-03-29T07:31:26;1.52;;;0.25;;
86088;SDS011;76699;52.232;5.176;2024-03-29T07:33:51;0.50;;;0.10;;
86088;SDS011;76699;52.232;5.176;2024-03-29T07:36:17;1.20;;;0.20;;
86088;SDS011;76699;52.232;5.176;2024-03-29T07:38:42;1.10;;;0.10;;
86088;SDS011;76699;52.232;5.176;2024-03-29T07:41:11;1.45;;;0.10;;
86088;SDS011;76699;52.232;5.176;2024-03-29T07:43:40;1.83;;;0.40;;
86088;SDS011;76699;52.232;5.176;2024-03-29T07:46:06;0.57;;;0.10;;
86088;SDS011;76699;52.232;5.176;2024-03-29T07:48:33;0.70;;;0.03;;
86088;SDS011;76699;52.232;5.176;2024-03-29T07:50:59;1.17;;;0.10;;
86088;SDS011;76699;52.232;5.176;2024-03-29T07:53:24;1.07;;;0.13;;
86088;SDS011;76699;52.232;5.176;2024-03-29T07:55:50;0.20;;;0.00;;
86088;SDS011;76699;52.232;5.176;2024-03-29T07:58:15;0.87;;;0.07;;
86088;SDS011;76699;52.232;5.176;2024-03-29T08:00:41;1.25;;;0.30;;
86088;SDS011;76699;52.232;5.176;2024-03-29T08:03:07;0.08;;;0.00;;
86088;SDS011;76699;52.232;5.176;2024-03-29T08:05:33;1.60;;;0.45;;
86088;SDS011;76699;52.232;5.176;2024-03-29T08:07:59;1.52;;;0.00;;
86088;SDS011;76699;52.232;5.176;2024-03-29T08:10:24;1.25;;;0.20;;
86088;SDS011;76699;52.232;5.176;2024-03-29T08:12:49;1.03;;;0.10;;
86088;SDS011;76699;52.232;5.176;2024-03-29T08:15:15;0.38;;;0.00;;
86088;SDS011;76699;52.232;5.176;2024-03-29T08:17:43;0.25;;;0.08;;
86088;SDS011;76699;52.232;5.176;2024-03-29T08:20:08;1.00;;;0.00;;
86088;SDS011;76699;52.232;5.176;2024-03-29T08:22:34;2.33;;;0.10;;
86088;SDS011;76699;52.232;5.176;2024-03-29T08:24:59;0.60;;;0.20;;
86088;SDS011;76699;52.232;5.176;2024-03-29T08:27:26;0.77;;;0.10;;
86088;SDS011;76699;52.232;5.176;2024-03-29T08:29:54;0.20;;;0.00;;
86088;SDS011;76699;52.232;5.176;2024-03-29T08:32:20;1.27;;;0.20;;
86088;SDS011;76699;52.232;5.176;2024-03-29T08:34:45;1.70;;;0.28;;
86088;SDS011;76699;52.232;5.176;2024-03-29T08:37:10;2.10;;;0.57;;
86088;SDS011;76699;52.232;5.176;2024-03-29T08:39:36;2.20;;;0.20;;
86088;SDS011;76699;52.232;5.176;2024-03-29T08:42:03;0.43;;;0.10;;
86088;SDS011;76699;52.232;5.176;2024-03-29T08:44:33;0.80;;;0.10;;
86088;SDS011;76699;52.232;5.176;2024-03-29T08:46:58;1.67;;;0.20;;
86088;SDS011;76699;52.232;5.176;2024-03-29T08:49:26;1.00;;;0.10;;
86088;SDS011;76699;52.232;5.176;2024-03-29T08:51:55;0.93;;;0.13;;
86088;SDS011;76699;52.232;5.176;2024-03-29T08:54:22;1.02;;;0.40;;
86088;SDS011;76699;52.232;5.176;2024-03-29T08:56:47;0.80;;;0.10;;
86088;SDS011;76699;52.232;5.176;2024-03-29T08:59:13;1.77;;;0.20;;
86088;SDS011;76699;52.232;5.176;2024-03-29T09:01:44;1.58;;;0.30;;
86088;SDS011;76699;52.232;5.176;2024-03-29T09:04:10;0.90;;;0.10;;
86088;SDS011;76699;52.232;5.176;2024-03-29T09:06:39;0.70;;;0.20;;
86088;SDS011;76699;52.232;5.176;2024-03-29T09:09:04;0.73;;;0.10;;
86088;SDS011;76699;52.232;5.176;2024-03-29T09:11:30;1.90;;;0.40;;
86088;SDS011;76699;52.232;5.176;2024-03-29T09:13:56;1.85;;;0.10;;
86088;SDS011;76699;52.232;5.176;2024-03-29T09:16:23;0.93;;;0.10;;
86088;SDS011;76699;52.232;5.176;2024-03-29T09:18:50;1.10;;;0.10;;
86088;SDS011;76699;52.232;5.176;2024-03-29T09:21:16;1.05;;;0.10;;
86088;SDS011;76699;52.232;5.176;2024-03-29T09:23:41;0.67;;;0.30;;
86088;SDS011;76699;52.232;5.176;2024-03-29T09:26:07;1.55;;;0.10;;
86088;SDS011;76699;52.232;5.176;2024-03-29T09:28:32;0.60;;;0.00;;
86088;SDS011;76699;52.232;5.176;2024-03-29T09:30:59;0.20;;;0.10;;
86088;SDS011;76699;52.232;5.176;2024-03-29T09:33:25;1.23;;;0.10;;
86088;SDS011;76699;52.232;5.176;2024-03-29T09:35:51;0.50;;;0.10;;
86088;SDS011;76699;52.232;5.176;2024-03-29T09:38:16;2.28;;;0.20;;
86088;SDS011;76699;52.232;5.176;2024-03-29T09:40:42;1.02;;;0.20;;
86088;SDS011;76699;52.232;5.176;2024-03-29T09:43:08;1.20;;;0.30;;
86088;SDS011;76699;52.232;5.176;2024-03-29T09:45:35;2.08;;;0.75;;
86088;SDS011;76699;52.232;5.176;2024-03-29T09:48:03;0.82;;;0.20;;
86088;SDS011;76699;52.232;5.176;2024-03-29T09:50:29;3.53;;;0.20;;
86088;SDS011;76699;52.232;5.176;2024-03-29T09:52:56;0.88;;;0.20;;
86088;SDS011;76699;52.232;5.176;2024-03-29T09:55:22;2.38;;;0.17;;
86088;SDS011;76699;52.232;5.176;2024-03-29T09:57:48;2.25;;;0.10;;
86088;SDS011;76699;52.232;5.176;2024-03-29T10:00:14;1.65;;;0.15;;
86088;SDS011;76699;52.232;5.176;2024-03-29T10:02:39;0.57;;;0.10;;
86088;SDS011;76699;52.232;5.176;2024-03-29T10:05:06;3.08;;;0.30;;
86088;SDS011;76699;52.232;5.176;2024-03-29T10:07:33;1.00;;;0.20;;
86088;SDS011;76699;52.232;5.176;2024-03-29T10:10:01;1.10;;;0.20;;
86088;SDS011;76699;52.232;5.176;2024-03-29T10:12:28;3.50;;;0.30;;
86088;SDS011;76699;52.232;5.176;2024-03-29T10:14:54;1.70;;;0.30;;
86088;SDS011;76699;52.232;5.176;2024-03-29T10:17:30;2.88;;;0.30;;
86088;SDS011;76699;52.232;5.176;2024-03-29T10:19:58;1.60;;;0.37;;
86088;SDS011;76699;52.232;5.176;2024-03-29T10:22:25;3.47;;;0.40;;
86088;SDS011;76699;52.232;5.176;2024-03-29T10:24:50;1.77;;;0.43;;
86088;SDS011;76699;52.232;5.176;2024-03-29T10:27:16;1.70;;;0.40;;
86088;SDS011;76699;52.232;5.176;2024-03-29T10:29:41;1.40;;;0.33;;
86088;SDS011;76699;52.232;5.176;2024-03-29T10:32:06;0.63;;;0.13;;
86088;SDS011;76699;52.232;5.176;2024-03-29T10:34:32;1.60;;;0.40;;
86088;SDS011;76699;52.232;5.176;2024-03-29T10:37:01;2.15;;;0.75;;
86088;SDS011;76699;52.232;5.176;2024-03-29T10:39:28;2.22;;;0.32;;
86088;SDS011;76699;52.232;5.176;2024-03-29T10:41:55;0.82;;;0.20;;
86088;SDS011;76699;52.232;5.176;2024-03-29T10:44:21;1.05;;;0.30;;
86088;SDS011;76699;52.232;5.176;2024-03-29T10:46:48;2.55;;;0.40;;
86088;SDS011;76699;52.232;5.176;2024-03-29T10:49:15;1.70;;;0.50;;
86088;SDS011;76699;52.232;5.176;2024-03-29T10:51:43;1.63;;;0.30;;
86088;SDS011;76699;52.232;5.176;2024-03-29T10:54:09;1.87;;;0.40;;
86088;SDS011;76699;52.232;5.176;2024-03-29T10:56:35;0.98;;;0.40;;
86088;SDS011;76699;52.232;5.176;2024-03-29T10:59:04;2.50;;;0.55;;
86088;SDS011;76699;52.232;5.176;2024-03-29T11:01:38;1.63;;;0.70;;
86088;SDS011;76699;52.232;5.176;2024-03-29T11:04:11;2.45;;;0.80;;
86088;SDS011;76699;52.232;5.176;2024-03-29T11:06:41;2.28;;;0.93;;
86088;SDS011;76699;52.232;5.176;2024-03-29T11:09:09;1.58;;;0.77;;
86088;SDS011;76699;52.232;5.176;2024-03-29T11:11:39;3.85;;;0.90;;
86088;SDS011;76699;52.232;5.176;2024-03-29T11:14:10;1.42;;;0.68;;
86088;SDS011;76699;52.232;5.176;2024-03-29T11:16:41;5.13;;;2.17;;
86088;SDS011;76699;52.232;5.176;2024-03-29T11:19:15;3.00;;;0.80;;
86088;SDS011;76699;52.232;5.176;2024-03-29T11:21:42;2.13;;;0.60;;
86088;SDS011;76699;52.232;5.176;2024-03-29T11:24:10;1.98;;;0.52;;
86088;SDS011;76699;52.232;5.176;2024-03-29T11:26:36;2.90;;;0.75;;
86088;SDS011;76699;52.232;5.176;2024-03-29T11:29:01;1.88;;;0.60;;
86088;SDS011;76699;52.232;5.176;2024-03-29T11:31:28;2.28;;;0.57;;
86088;SDS011;76699;52.232;5.176;2024-03-29T11:33:57;1.40;;;0.60;;
86088;SDS011;76699;52.232;5.176;2024-03-29T11:36:23;1.50;;;0.40;;
86088;SDS011;76699;52.232;5.176;2024-03-29T11:38:53;2.15;;;0.40;;
86088;SDS011;76699;52.232;5.176;2024-03-29T11:41:22;1.58;;;0.50;;
86088;SDS011;76699;52.232;5.176;2024-03-29T11:43:49;1.20;;;0.45;;
86088;SDS011;76699;52.232;5.176;2024-03-29T11:46:16;1.13;;;0.50;;
86088;SDS011;76699;52.232;5.176;2024-03-29T11:48:41;4.07;;;1.77;;
86088;SDS011;76699;52.232;5.176;2024-03-29T11:51:08;1.43;;;0.47;;
86088;SDS011;76699;52.232;5.176;2024-03-29T11:53:36;0.98;;;0.22;;
86088;SDS011;76699;52.232;5.176;2024-03-29T11:56:02;1.73;;;0.40;;
86088;SDS011;76699;52.232;5.176;2024-03-29T11:58:29;1.55;;;0.52;;
86088;SDS011;76699;52.232;5.176;2024-03-29T12:00:57;2.45;;;0.45;;
86088;SDS011;76699;52.232;5.176;2024-03-29T12:03:23;3.05;;;0.70;;
86088;SDS011;76699;52.232;5.176;2024-03-29T12:05:50;1.35;;;0.60;;
86088;SDS011;76699;52.232;5.176;2024-03-29T12:08:19;2.35;;;0.90;;
86088;SDS011;76699;52.232;5.176;2024-03-29T12:10:45;1.88;;;0.85;;
86088;SDS011;76699;52.232;5.176;2024-03-29T12:13:11;2.00;;;1.20;;
86088;SDS011;76699;52.232;5.176;2024-03-29T12:15:36;2.60;;;1.27;;
86088;SDS011;76699;52.232;5.176;2024-03-29T12:18:02;2.92;;;1.40;;
86088;SDS011;76699;52.232;5.176;2024-03-29T12:20:30;2.88;;;1.23;;
86088;SDS011;76699;52.232;5.176;2024-03-29T12:23:00;4.57;;;1.60;;
86088;SDS011;76699;52.232;5.176;2024-03-29T12:25:29;2.55;;;1.65;;
86088;SDS011;76699;52.232;5.176;2024-03-29T12:27:56;2.75;;;1.90;;
86088;SDS011;76699;52.232;5.176;2024-03-29T12:30:22;3.13;;;1.90;;
86088;SDS011;76699;52.232;5.176;2024-03-29T12:32:48;3.05;;;2.10;;
86088;SDS011;76699;52.232;5.176;2024-03-29T12:35:14;4.25;;;2.08;;
86088;SDS011;76699;52.232;5.176;2024-03-29T12:37:50;4.07;;;2.20;;
86088;SDS011;76699;52.232;5.176;2024-03-29T12:40:17;3.78;;;2.50;;
86088;SDS011;76699;52.232;5.176;2024-03-29T12:42:48;2.55;;;1.77;;
86088;SDS011;76699;52.232;5.176;2024-03-29T12:45:15;3.95;;;1.95;;
86088;SDS011;76699;52.232;5.176;2024-03-29T12:47:41;2.53;;;1.63;;
86088;SDS011;76699;52.232;5.176;2024-03-29T12:50:07;2.90;;;1.52;;
86088;SDS011;76699;52.232;5.176;2024-03-29T12:52:42;2.40;;;2.20;;
86088;SDS011;76699;52.232;5.176;2024-03-29T12:55:07;2.95;;;2.17;;
86088;SDS011;76699;52.232;5.176;2024-03-29T12:57:33;3.38;;;2.33;;
86088;SDS011;76699;52.232;5.176;2024-03-29T13:00:00;3.10;;;1.90;;
86088;SDS011;76699;52.232;5.176;2024-03-29T13:02:26;2.70;;;1.85;;
86088;SDS011;76699;52.232;5.176;2024-03-29T13:04:51;1.90;;;1.10;;
86088;SDS011;76699;52.232;5.176;2024-03-29T13:07:17;2.07;;;1.37;;
86088;SDS011;76699;52.232;5.176;2024-03-29T13:09:42;3.47;;;1.60;;
86088;SDS011;76699;52.232;5.176;2024-03-29T13:12:07;3.30;;;0.97;;
86088;SDS011;76699;52.232;5.176;2024-03-29T13:14:33;1.90;;;1.05;;
86088;SDS011;76699;52.232;5.176;2024-03-29T13:16:59;2.65;;;1.38;;
86088;SDS011;76699;52.232;5.176;2024-03-29T13:19:24;4.25;;;1.00;;
86088;SDS011;76699;52.232;5.176;2024-03-29T13:21:49;1.80;;;1.10;;
86088;SDS011;76699;52.232;5.176;2024-03-29T13:24:15;2.90;;;1.37;;
86088;SDS011;76699;52.232;5.176;2024-03-29T13:26:40;3.97;;;1.37;;
86088;SDS011;76699;52.232;5.176;2024-03-29T13:29:06;2.78;;;1.38;;
86088;SDS011;76699;52.232;5.176;2024-03-29T13:31:31;2.20;;;1.00;;
86088;SDS011;76699;52.232;5.176;2024-03-29T13:33:58;2.85;;;1.45;;
86088;SDS011;76699;52.232;5.176;2024-03-29T13:36:36;3.53;;;1.33;;
86088;SDS011;76699;52.232;5.176;2024-03-29T13:39:02;2.65;;;1.27;;
86088;SDS011;76699;52.232;5.176;2024-03-29T13:41:27;2.73;;;1.77;;
86088;SDS011;76699;52.232;5.176;2024-03-29T13:43:52;2.63;;;1.97;;
86088;SDS011;76699;52.232;5.176;2024-03-29T13:46:17;2.00;;;1.40;;
86088;SDS011;76699;52.232;5.176;2024-03-29T13:48:43;2.23;;;1.70;;
86088;SDS011;76699;52.232;5.176;2024-03-29T13:51:11;2.83;;;2.20;;
86088;SDS011;76699;52.232;5.176;2024-03-29T13:53:37;4.50;;;1.37;;
86088;SDS011;76699;52.232;5.176;2024-03-29T13:56:02;2.53;;;1.43;;
86088;SDS011;76699;52.232;5.176;2024-03-29T13:58:28;2.92;;;1.33;;
86088;SDS011;76699;52.232;5.176;2024-03-29T14:00:53;2.88;;;1.67;;
86088;SDS011;76699;52.232;5.176;2024-03-29T14:03:21;2.55;;;1.30;;
86088;SDS011;76699;52.232;5.176;2024-03-29T14:05:47;2.50;;;1.35;;
86088;SDS011;76699;52.232;5.176;2024-03-29T14:08:13;2.50;;;1.20;;
86088;SDS011;76699;52.232;5.176;2024-03-29T14:10:39;3.47;;;1.17;;
86088;SDS011;76699;52.232;5.176;2024-03-29T14:13:04;2.33;;;1.10;;
86088;SDS011;76699;52.232;5.176;2024-03-29T14:15:29;2.42;;;0.90;;
86088;SDS011;76699;52.232;5.176;2024-03-29T14:17:55;2.03;;;1.20;;
86088;SDS011;76699;52.232;5.176;2024-03-29T14:20:21;2.60;;;1.27;;
86088;SDS011;76699;52.232;5.176;2024-03-29T14:22:47;3.28;;;1.70;;
86088;SDS011;76699;52.232;5.176;2024-03-29T14:25:19;3.75;;;1.90;;
86088;SDS011;76699;52.232;5.176;2024-03-29T14:27:44;4.20;;;2.00;;
86088;SDS011;76699;52.232;5.176;2024-03-29T14:30:19;3.70;;;2.20;;
86088;SDS011;76699;52.232;5.176;2024-03-29T14:32:52;3.60;;;1.90;;
86088;SDS011;76699;52.232;5.176;2024-03-29T14:35:17;3.35;;;2.58;;
86088;SDS011;76699;52.232;5.176;2024-03-29T14:37:45;3.83;;;2.35;;
86088;SDS011;76699;52.232;5.176;2024-03-29T14:40:11;4.25;;;1.95;;
86088;SDS011;76699;52.232;5.176;2024-03-29T14:42:38;2.67;;;1.90;;